createdAt,value
2019-06-07T00:04:03.881Z,73.65
2019-06-07T00:09:09.959Z,73.56
2019-06-07T00:14:16.039Z,74.22
2019-06-07T00:19:19.013Z,74.61
2019-06-07T00:24:22.485Z,74.83
2019-06-07T00:29:25.826Z,75.54
2019-06-07T00:34:29.189Z,75.59
2019-06-07T00:39:32.559Z,76.70
2019-06-07T00:44:35.886Z,75.64
2019-06-07T00:49:41.373Z,75.18
2019-06-07T00:54:44.211Z,76.25
2019-06-07T00:59:47.604Z,76.49
2019-06-07T01:04:50.975Z,77.00
2019-06-07T01:09:54.264Z,77.56
2019-06-07T01:14:57.577Z,78.13
2019-06-07T01:20:00.989Z,77.97
2019-06-07T01:25:06.332Z,77.37
2019-06-07T01:30:14.335Z,79.78
2019-06-07T01:35:20.271Z,79.74
2019-06-07T01:40:28.847Z,77.17
2019-06-07T01:45:30.892Z,77.10
2019-06-07T01:50:32.899Z,77.33
2019-06-07T01:55:36.203Z,77.31
2019-06-07T02:00:39.511Z,77.02
2019-06-07T02:05:42.812Z,77.78
2019-06-07T02:10:46.110Z,77.16
2019-06-07T02:15:49.403Z,77.36
2019-06-07T02:20:52.701Z,76.60
2019-06-07T02:25:55.983Z,79.94
2019-06-07T02:31:00.586Z,77.98
2019-06-07T02:36:04.108Z,77.31
2019-06-07T02:41:07.572Z,77.51
2019-06-07T02:46:27.741Z,77.21
2019-06-07T02:51:17.627Z,77.17
2019-06-07T02:56:40.390Z,78.06
2019-06-07T03:01:28.562Z,78.27
2019-06-07T03:06:36.961Z,77.01
2019-06-07T03:11:39.062Z,77.50
2019-06-07T03:16:48.640Z,81.23
2019-06-07T03:21:53.432Z,80.93
2019-06-07T03:32:01.853Z,82.07
2019-06-07T03:37:05.234Z,82.07
2019-06-07T03:42:08.712Z,79.41
2019-06-07T03:47:11.980Z,79.52
2019-06-07T03:52:15.303Z,79.17
2019-06-07T03:57:18.638Z,78.93
2019-06-07T04:02:21.958Z,77.93
2019-06-07T04:07:25.256Z,79.66
2019-06-07T04:12:28.613Z,81.62
2019-06-07T04:17:34.654Z,81.67
2019-06-07T04:22:40.480Z,80.82
2019-06-07T04:27:44.185Z,79.61
2019-06-07T04:32:47.478Z,78.88
2019-06-07T04:37:50.881Z,79.33
2019-06-07T04:42:54.245Z,78.98
2019-06-07T04:47:58.201Z,79.14
2019-06-07T04:53:01.538Z,78.82
2019-06-07T04:58:05.160Z,78.54
2019-06-07T05:03:08.482Z,79.12
2019-06-07T05:08:27.743Z,78.40
2019-06-07T05:13:16.793Z,77.98
2019-06-07T05:18:20.118Z,78.14
2019-06-07T05:24:04.838Z,77.72
2019-06-07T05:28:28.423Z,77.97
2019-06-07T05:33:35.094Z,76.49
2019-06-07T05:38:40.445Z,78.56
2019-06-07T05:43:49.486Z,76.02
2019-06-07T05:48:46.800Z,74.92
2019-06-07T05:53:50.147Z,74.06
2019-06-07T05:58:53.485Z,73.36
2019-06-07T06:03:56.813Z,73.01
2019-06-07T06:09:13.347Z,73.56
2019-06-07T06:14:07.934Z,72.20
2019-06-07T06:19:10.210Z,71.83
2019-06-07T06:24:13.519Z,72.14
2019-06-07T06:29:16.806Z,70.86
2019-06-07T06:34:20.137Z,71.52
2019-06-07T06:39:23.420Z,70.91
2019-06-07T06:44:26.777Z,71.47
2019-06-07T06:49:30.099Z,70.73
2019-06-07T06:54:40.808Z,69.36
2019-06-07T06:59:40.853Z,68.91
2019-06-07T07:04:43.996Z,67.79
2019-06-07T07:09:52.327Z,66.75
2019-06-07T07:14:56.073Z,65.54
2019-06-07T07:19:59.149Z,65.42
2019-06-07T07:25:02.437Z,64.94
2019-06-07T07:30:36.243Z,65.03
2019-06-07T07:35:14.596Z,65.57
2019-06-07T07:45:22.974Z,62.51
2019-06-07T07:50:26.265Z,61.19
2019-06-07T07:55:29.619Z,61.31
2019-06-07T08:00:52.968Z,61.35
2019-06-07T08:05:42.893Z,60.81
2019-06-07T08:10:43.581Z,59.39
2019-06-07T08:15:48.287Z,59.26
2019-06-07T08:21:08.811Z,60.20
2019-06-07T08:26:00.905Z,58.37
2019-06-07T08:31:07.058Z,56.71
2019-06-07T08:36:19.401Z,57.84
2019-06-07T08:41:13.026Z,57.11
2019-06-07T08:46:16.334Z,58.07
2019-06-07T08:51:19.650Z,56.67
2019-06-07T08:56:23.017Z,56.45
2019-06-07T09:01:26.326Z,54.68
2019-06-07T09:11:34.744Z,54.82
2019-06-07T09:16:38.104Z,53.87
2019-06-07T09:21:41.469Z,53.24
2019-06-07T09:26:44.785Z,52.95
2019-06-07T09:31:53.378Z,51.52
2019-06-07T09:36:53.781Z,52.77
2019-06-07T09:41:58.701Z,50.88
2019-06-07T09:47:22.408Z,50.91
2019-06-07T09:52:10.743Z,49.44
2019-06-07T09:57:17.460Z,49.83
2019-06-07T10:02:17.465Z,49.96
2019-06-07T10:07:31.313Z,50.45
2019-06-07T10:12:25.985Z,50.48
2019-06-07T10:17:29.315Z,49.26
2019-06-07T10:22:32.603Z,47.63
2019-06-07T10:27:35.971Z,48.50
2019-06-07T10:32:39.468Z,46.99
2019-06-07T10:37:42.753Z,47.34
2019-06-07T10:42:46.043Z,46.16
2019-06-07T10:47:49.371Z,47.10
2019-06-07T10:52:52.655Z,45.52
2019-06-07T10:57:57.670Z,47.36
2019-06-07T11:03:00.968Z,46.86
2019-06-07T11:08:04.315Z,47.51
2019-06-07T11:13:08.251Z,46.38
2019-06-07T11:18:12.531Z,46.97
2019-06-07T11:23:15.976Z,45.68
2019-06-07T11:28:19.266Z,45.46
2019-06-07T11:33:22.555Z,45.87
2019-06-07T11:38:25.859Z,45.12
2019-06-07T11:43:29.191Z,45.44
2019-06-07T11:48:33.420Z,45.17
2019-06-07T11:53:38.552Z,44.79
2019-06-07T11:58:41.844Z,44.79
2019-06-07T12:03:45.134Z,44.62
2019-06-07T12:08:48.426Z,45.48
2019-06-07T12:13:51.711Z,44.62
2019-06-07T12:18:55.038Z,45.54
2019-06-07T12:23:58.415Z,44.65
2019-06-07T12:29:01.748Z,42.96
2019-06-07T12:34:05.106Z,44.43
2019-06-07T12:39:08.465Z,43.15
2019-06-07T12:44:12.594Z,43.49
2019-06-07T12:49:17.032Z,42.29
2019-06-07T12:54:21.610Z,42.90
2019-06-07T12:59:25.029Z,40.89
2019-06-07T13:04:28.330Z,39.90
2019-06-07T13:09:35.988Z,41.59
2019-06-07T13:14:36.694Z,40.72
2019-06-07T13:19:39.970Z,40.24
2019-06-07T13:24:43.342Z,40.05
2019-06-07T13:29:46.774Z,40.01
2019-06-07T13:34:51.733Z,38.37
2019-06-07T13:39:57.811Z,40.22
2019-06-07T13:45:01.106Z,40.94
2019-06-07T13:50:07.881Z,38.33
2019-06-07T13:55:11.514Z,39.23
2019-06-07T14:00:15.387Z,39.07
2019-06-07T14:05:18.909Z,39.07
2019-06-07T14:10:23.538Z,38.66
2019-06-07T14:15:28.189Z,36.33
2019-06-07T14:20:34.635Z,38.43
2019-06-07T14:25:37.056Z,37.39
2019-06-07T14:30:40.379Z,37.63
2019-06-07T14:35:43.717Z,35.04
2019-06-07T14:40:47.093Z,35.95
2019-06-07T14:45:50.410Z,35.42
2019-06-07T14:50:53.725Z,35.42
2019-06-07T14:55:57.017Z,35.37
2019-06-07T15:01:00.315Z,35.11
2019-06-07T15:06:03.606Z,35.83
2019-06-07T15:11:06.909Z,34.56
2019-06-07T15:16:10.242Z,31.92
2019-06-07T15:21:13.710Z,30.27
2019-06-07T15:26:17.051Z,29.64
2019-06-07T15:31:20.415Z,30.04
2019-06-07T15:36:23.762Z,30.47
2019-06-07T15:41:27.141Z,31.53
2019-06-07T15:46:31.495Z,31.98
2019-06-07T15:51:36.559Z,29.89
2019-06-07T15:56:41.304Z,29.39
2019-06-07T16:01:44.764Z,28.92
2019-06-07T16:06:48.166Z,27.71
2019-06-07T16:11:51.497Z,27.96
2019-06-07T16:16:54.816Z,28.41
2019-06-07T16:21:58.117Z,28.19
2019-06-07T16:27:01.429Z,33.50
2019-06-07T16:32:04.870Z,34.43
2019-06-07T16:37:08.230Z,34.13
2019-06-07T16:42:11.534Z,32.93
2019-06-07T16:47:14.829Z,30.24
2019-06-07T16:52:18.151Z,33.90
2019-06-07T16:57:21.506Z,34.69
2019-06-07T17:02:24.901Z,35.43
2019-06-07T17:07:28.209Z,35.58
2019-06-07T17:12:31.565Z,36.27
2019-06-07T17:17:34.898Z,36.29
2019-06-07T17:22:39.070Z,36.18
2019-06-07T17:27:43.892Z,36.91
2019-06-07T17:32:56.901Z,37.41
2019-06-07T17:37:52.367Z,37.46
2019-06-07T17:42:55.689Z,38.61
2019-06-07T17:47:59.013Z,40.09
2019-06-07T17:53:02.499Z,43.17
2019-06-07T17:58:05.903Z,45.11
2019-06-07T18:03:09.209Z,46.60
2019-06-07T18:08:13.098Z,46.35
2019-06-07T18:13:16.421Z,47.10
2019-06-07T18:18:19.714Z,48.61
2019-06-07T18:23:23.036Z,47.92
2019-06-07T18:28:26.376Z,48.66
2019-06-07T18:33:29.668Z,50.38
2019-06-07T18:38:32.962Z,50.23
2019-06-07T18:43:36.270Z,50.11
2019-06-07T18:48:39.594Z,52.19
2019-06-07T18:53:42.891Z,51.85
2019-06-07T18:58:47.128Z,53.49
2019-06-07T19:03:52.019Z,53.44
2019-06-07T19:08:56.970Z,54.30
2019-06-07T19:14:00.450Z,54.85
2019-06-07T19:19:03.798Z,55.24
2019-06-07T19:24:07.151Z,54.42
2019-06-07T19:29:10.456Z,55.94
2019-06-07T19:34:13.835Z,56.19
2019-06-07T19:39:17.112Z,57.43
2019-06-07T19:44:20.425Z,57.04
2019-06-07T19:49:23.749Z,56.18
2019-06-07T19:59:29.453Z,57.59
2019-06-07T20:04:32.787Z,59.29
2019-06-07T20:09:36.074Z,57.50
2019-06-07T20:14:39.393Z,57.85
2019-06-07T20:19:42.707Z,58.66
2019-06-07T20:24:46.014Z,59.14
2019-06-07T20:29:49.309Z,60.12
2019-06-07T20:34:52.607Z,58.09
2019-06-07T20:39:57.031Z,61.82
2019-06-07T20:45:01.993Z,58.73
2019-06-07T20:50:08.754Z,60.46
2019-06-07T20:55:12.808Z,59.55
2019-06-07T21:00:21.745Z,58.89
2019-06-07T21:05:21.389Z,59.88
2019-06-07T21:10:24.742Z,61.62
2019-06-07T21:15:28.030Z,59.29
2019-06-07T21:20:33.951Z,59.26
2019-06-07T21:25:36.368Z,60.90
2019-06-07T21:30:39.665Z,64.20
2019-06-07T21:35:42.973Z,57.07
2019-06-07T21:40:46.318Z,57.35
2019-06-07T21:46:04.435Z,59.38
2019-06-07T21:50:54.709Z,60.87
2019-06-07T21:55:58.010Z,59.35
2019-06-07T22:01:06.284Z,55.52
2019-06-07T22:06:09.779Z,54.47
2019-06-07T22:11:14.147Z,54.15
2019-06-07T22:16:28.622Z,54.42
2019-06-07T22:21:24.223Z,54.56
2019-06-07T22:26:27.646Z,54.67
2019-06-07T22:31:31.322Z,54.58
2019-06-07T22:36:34.629Z,53.21
2019-06-07T22:41:37.973Z,53.11
2019-06-07T22:46:41.384Z,53.26
2019-06-07T22:51:44.656Z,52.96
2019-06-07T22:56:52.158Z,52.74
2019-06-07T23:01:55.390Z,52.25
2019-06-07T23:06:58.736Z,52.43
2019-06-07T23:12:02.042Z,52.08
2019-06-07T23:17:05.438Z,51.88
2019-06-07T23:22:09.912Z,51.65
2019-06-07T23:27:14.446Z,51.23
2019-06-07T23:32:20.194Z,51.10
2019-06-07T23:37:25.488Z,50.89
2019-06-07T23:42:29.081Z,51.37
2019-06-07T23:47:32.348Z,51.75
2019-06-07T23:52:35.765Z,51.88
2019-06-07T23:57:41.732Z,51.63
